sensor_id;sensor_type;location;lat;lon;timestamp;temperature;humidity
9837;DHT22;4957;51.412;6.724;2023-12-20T00:01:47;9.30;99.90
9837;DHT22;4957;51.412;6.724;2023-12-20T00:04:13;9.30;99.90
9837;DHT22;4957;51.412;6.724;2023-12-20T00:06:39;9.30;99.90
9837;DHT22;4957;51.412;6.724;2023-12-20T00:09:04;9.30;99.90
9837;DHT22;4957;51.412;6.724;2023-12-20T00:11:30;9.30;99.90
9837;DHT22;4957;51.412;6.724;2023-12-20T00:13:56;9.30;99.90
9837;DHT22;4957;51.412;6.724;2023-12-20T00:16:21;9.30;99.90
9837;DHT22;4957;51.412;6.724;2023-12-20T00:18:47;9.20;99.90
9837;DHT22;4957;51.412;6.724;2023-12-20T00:21:13;9.20;99.90
9837;DHT22;4957;51.412;6.724;2023-12-20T00:23:38;9.20;99.90
9837;DHT22;4957;51.412;6.724;2023-12-20T00:26:04;9.10;99.90
9837;DHT22;4957;51.412;6.724;2023-12-20T00:28:30;9.10;99.90
9837;DHT22;4957;51.412;6.724;2023-12-20T00:30:55;9.00;99.90
9837;DHT22;4957;51.412;6.724;2023-12-20T00:33:21;9.00;99.90
9837;DHT22;4957;51.412;6.724;2023-12-20T00:35:46;9.00;99.90
9837;DHT22;4957;51.412;6.724;2023-12-20T00:38:12;8.90;99.90
9837;DHT22;4957;51.412;6.724;2023-12-20T00:40:38;8.90;99.90
9837;DHT22;4957;51.412;6.724;2023-12-20T00:43:04;8.90;99.90
9837;DHT22;4957;51.412;6.724;2023-12-20T00:45:29;8.90;99.90
9837;DHT22;4957;51.412;6.724;2023-12-20T00:47:55;8.90;99.90
9837;DHT22;4957;51.412;6.724;2023-12-20T00:50:21;8.80;99.90
9837;DHT22;4957;51.412;6.724;2023-12-20T00:52:47;8.90;99.90
9837;DHT22;4957;51.412;6.724;2023-12-20T00:55:13;8.80;99.90
9837;DHT22;4957;51.412;6.724;2023-12-20T00:57:39;8.80;99.90
9837;DHT22;4957;51.412;6.724;2023-12-20T01:00:05;8.80;99.90
9837;DHT22;4957;51.412;6.724;2023-12-20T01:02:31;8.80;99.90
9837;DHT22;4957;51.412;6.724;2023-12-20T01:04:57;8.80;99.90
9837;DHT22;4957;51.412;6.724;2023-12-20T01:07:22;8.80;99.90
9837;DHT22;4957;51.412;6.724;2023-12-20T01:09:48;8.80;99.90
9837;DHT22;4957;51.412;6.724;2023-12-20T01:12:14;8.80;99.90
9837;DHT22;4957;51.412;6.724;2023-12-20T01:14:40;8.70;99.90
9837;DHT22;4957;51.412;6.724;2023-12-20T01:17:06;8.80;99.90
9837;DHT22;4957;51.412;6.724;2023-12-20T01:19:32;8.70;99.90
9837;DHT22;4957;51.412;6.724;2023-12-20T01:21:57;8.70;99.90
9837;DHT22;4957;51.412;6.724;2023-12-20T01:24:23;8.70;99.90
9837;DHT22;4957;51.412;6.724;2023-12-20T01:26:48;8.70;99.90
9837;DHT22;4957;51.412;6.724;2023-12-20T01:29:14;8.70;99.90
9837;DHT22;4957;51.412;6.724;2023-12-20T01:31:41;8.70;99.90
9837;DHT22;4957;51.412;6.724;2023-12-20T01:34:07;8.70;99.90
9837;DHT22;4957;51.412;6.724;2023-12-20T01:36:32;8.70;99.90
9837;DHT22;4957;51.412;6.724;2023-12-20T01:38:58;8.70;99.90
9837;DHT22;4957;51.412;6.724;2023-12-20T01:41:24;8.60;99.90
9837;DHT22;4957;51.412;6.724;2023-12-20T01:43:49;8.70;99.90
9837;DHT22;4957;51.412;6.724;2023-12-20T01:46:15;8.60;99.90
9837;DHT22;4957;51.412;6.724;2023-12-20T01:48:41;8.60;99.90
9837;DHT22;4957;51.412;6.724;2023-12-20T01:51:07;8.60;99.90
9837;DHT22;4957;51.412;6.724;2023-12-20T01:53:33;8.60;99.90
9837;DHT22;4957;51.412;6.724;2023-12-20T01:55:59;8.60;99.90
9837;DHT22;4957;51.412;6.724;2023-12-20T01:58:26;8.50;99.90
9837;DHT22;4957;51.412;6.724;2023-12-20T02:00:52;8.50;99.90
9837;DHT22;4957;51.412;6.724;2023-12-20T02:03:18;8.50;99.90
9837;DHT22;4957;51.412;6.724;2023-12-20T02:05:44;8.40;99.90
9837;DHT22;4957;51.412;6.724;2023-12-20T02:08:11;8.40;99.90
9837;DHT22;4957;51.412;6.724;2023-12-20T02:10:36;8.40;99.90
9837;DHT22;4957;51.412;6.724;2023-12-20T02:13:03;8.40;99.90
9837;DHT22;4957;51.412;6.724;2023-12-20T02:15:29;8.30;99.90
9837;DHT22;4957;51.412;6.724;2023-12-20T02:17:55;8.30;99.90
9837;DHT22;4957;51.412;6.724;2023-12-20T02:20:21;8.30;99.90
9837;DHT22;4957;51.412;6.724;2023-12-20T02:22:46;8.30;99.90
9837;DHT22;4957;51.412;6.724;2023-12-20T02:25:12;8.30;99.90
9837;DHT22;4957;51.412;6.724;2023-12-20T02:27:38;8.20;99.90
9837;DHT22;4957;51.412;6.724;2023-12-20T02:30:05;8.20;99.90
9837;DHT22;4957;51.412;6.724;2023-12-20T02:32:31;8.10;99.90
9837;DHT22;4957;51.412;6.724;2023-12-20T02:34:57;8.10;99.90
9837;DHT22;4957;51.412;6.724;2023-12-20T02:37:25;8.10;99.90
9837;DHT22;4957;51.412;6.724;2023-12-20T02:39:50;8.10;99.90
9837;DHT22;4957;51.412;6.724;2023-12-20T02:42:16;8.00;99.90
9837;DHT22;4957;51.412;6.724;2023-12-20T02:44:42;8.00;99.90
9837;DHT22;4957;51.412;6.724;2023-12-20T02:47:07;8.00;99.90
9837;DHT22;4957;51.412;6.724;2023-12-20T02:49:33;8.00;99.90
9837;DHT22;4957;51.412;6.724;2023-12-20T02:51:59;7.90;99.90
9837;DHT22;4957;51.412;6.724;2023-12-20T02:54:24;7.90;99.90
9837;DHT22;4957;51.412;6.724;2023-12-20T02:56:50;7.90;99.90
9837;DHT22;4957;51.412;6.724;2023-12-20T02:59:15;7.80;99.90
9837;DHT22;4957;51.412;6.724;2023-12-20T03:01:45;7.80;99.90
9837;DHT22;4957;51.412;6.724;2023-12-20T03:04:11;7.80;99.90
9837;DHT22;4957;51.412;6.724;2023-12-20T03:06:37;7.80;99.90
9837;DHT22;4957;51.412;6.724;2023-12-20T03:09:03;7.80;99.90
9837;DHT22;4957;51.412;6.724;2023-12-20T03:11:30;7.70;99.90
9837;DHT22;4957;51.412;6.724;2023-12-20T03:13:56;7.70;99.90
9837;DHT22;4957;51.412;6.724;2023-12-20T03:16:22;7.70;99.90
9837;DHT22;4957;51.412;6.724;2023-12-20T03:18:47;7.70;99.90
9837;DHT22;4957;51.412;6.724;2023-12-20T03:21:13;7.70;99.90
9837;DHT22;4957;51.412;6.724;2023-12-20T03:23:39;7.70;99.90
9837;DHT22;4957;51.412;6.724;2023-12-20T03:26:08;7.60;99.90
9837;DHT22;4957;51.412;6.724;2023-12-20T03:28:34;7.60;99.90
9837;DHT22;4957;51.412;6.724;2023-12-20T03:31:01;7.70;99.90
9837;DHT22;4957;51.412;6.724;2023-12-20T03:33:28;7.60;99.90
9837;DHT22;4957;51.412;6.724;2023-12-20T03:35:53;7.60;99.90
9837;DHT22;4957;51.412;6.724;2023-12-20T03:38:19;7.60;99.90
9837;DHT22;4957;51.412;6.724;2023-12-20T03:40:44;7.60;99.90
9837;DHT22;4957;51.412;6.724;2023-12-20T03:43:10;7.60;99.90
9837;DHT22;4957;51.412;6.724;2023-12-20T03:45:36;7.60;99.90
9837;DHT22;4957;51.412;6.724;2023-12-20T03:48:01;7.60;99.90
9837;DHT22;4957;51.412;6.724;2023-12-20T03:50:27;7.60;99.90
9837;DHT22;4957;51.412;6.724;2023-12-20T03:52:53;7.60;99.90
9837;DHT22;4957;51.412;6.724;2023-12-20T03:55:18;7.60;99.90
9837;DHT22;4957;51.412;6.724;2023-12-20T03:57:44;7.60;99.90
9837;DHT22;4957;51.412;6.724;2023-12-20T04:00:10;7.60;99.90
9837;DHT22;4957;51.412;6.724;2023-12-20T04:02:39;7.60;99.90
9837;DHT22;4957;51.412;6.724;2023-12-20T04:05:06;7.50;99.90
9837;DHT22;4957;51.412;6.724;2023-12-20T04:07:32;7.50;99.90
9837;DHT22;4957;51.412;6.724;2023-12-20T04:09:58;7.50;99.90
9837;DHT22;4957;51.412;6.724;2023-12-20T04:12:24;7.50;99.90
9837;DHT22;4957;51.412;6.724;2023-12-20T04:14:50;7.50;99.90
9837;DHT22;4957;51.412;6.724;2023-12-20T04:17:16;7.40;99.90
9837;DHT22;4957;51.412;6.724;2023-12-20T04:19:42;7.40;99.90
9837;DHT22;4957;51.412;6.724;2023-12-20T04:22:08;7.40;99.90
9837;DHT22;4957;51.412;6.724;2023-12-20T04:24:33;7.40;99.90
9837;DHT22;4957;51.412;6.724;2023-12-20T04:26:59;7.30;99.90
9837;DHT22;4957;51.412;6.724;2023-12-20T04:29:25;7.30;99.90
9837;DHT22;4957;51.412;6.724;2023-12-20T04:31:50;7.30;99.90
9837;DHT22;4957;51.412;6.724;2023-12-20T04:34:19;7.30;99.90
9837;DHT22;4957;51.412;6.724;2023-12-20T04:36:45;7.30;99.90
9837;DHT22;4957;51.412;6.724;2023-12-20T04:39:14;7.30;99.90
9837;DHT22;4957;51.412;6.724;2023-12-20T04:41:40;7.20;99.90
9837;DHT22;4957;51.412;6.724;2023-12-20T04:44:06;7.20;99.90
9837;DHT22;4957;51.412;6.724;2023-12-20T04:46:32;7.20;99.90
9837;DHT22;4957;51.412;6.724;2023-12-20T04:48:57;7.20;99.90
9837;DHT22;4957;51.412;6.724;2023-12-20T04:51:23;7.20;99.90
9837;DHT22;4957;51.412;6.724;2023-12-20T04:53:49;7.20;99.90
9837;DHT22;4957;51.412;6.724;2023-12-20T04:56:14;7.20;99.90
9837;DHT22;4957;51.412;6.724;2023-12-20T04:58:40;7.20;99.90
9837;DHT22;4957;51.412;6.724;2023-12-20T05:01:06;7.20;99.90
9837;DHT22;4957;51.412;6.724;2023-12-20T05:03:32;7.20;99.90
9837;DHT22;4957;51.412;6.724;2023-12-20T05:05:58;7.20;99.90
9837;DHT22;4957;51.412;6.724;2023-12-20T05:08:24;7.10;99.90
9837;DHT22;4957;51.412;6.724;2023-12-20T05:10:51;7.10;99.90
9837;DHT22;4957;51.412;6.724;2023-12-20T05:13:17;7.10;99.90
9837;DHT22;4957;51.412;6.724;2023-12-20T05:15:42;7.10;99.90
9837;DHT22;4957;51.412;6.724;2023-12-20T05:18:08;7.10;99.90
9837;DHT22;4957;51.412;6.724;2023-12-20T05:20:33;7.10;99.90
9837;DHT22;4957;51.412;6.724;2023-12-20T05:22:59;7.10;99.90
9837;DHT22;4957;51.412;6.724;2023-12-20T05:25:24;7.10;99.90
9837;DHT22;4957;51.412;6.724;2023-12-20T05:27:50;7.10;99.90
9837;DHT22;4957;51.412;6.724;2023-12-20T05:30:16;7.00;99.90
9837;DHT22;4957;51.412;6.724;2023-12-20T05:32:42;7.00;99.90
9837;DHT22;4957;51.412;6.724;2023-12-20T05:35:07;7.00;99.90
9837;DHT22;4957;51.412;6.724;2023-12-20T05:37:33;7.00;99.90
9837;DHT22;4957;51.412;6.724;2023-12-20T05:39:58;7.00;99.90
9837;DHT22;4957;51.412;6.724;2023-12-20T05:42:24;7.00;99.90
9837;DHT22;4957;51.412;6.724;2023-12-20T05:44:50;7.00;99.90
9837;DHT22;4957;51.412;6.724;2023-12-20T05:47:15;7.00;99.90
9837;DHT22;4957;51.412;6.724;2023-12-20T05:49:42;7.00;99.90
9837;DHT22;4957;51.412;6.724;2023-12-20T05:52:08;7.00;99.90
9837;DHT22;4957;51.412;6.724;2023-12-20T05:54:33;7.00;99.90
9837;DHT22;4957;51.412;6.724;2023-12-20T05:56:59;7.00;99.90
9837;DHT22;4957;51.412;6.724;2023-12-20T05:59:26;7.00;99.90
9837;DHT22;4957;51.412;6.724;2023-12-20T06:01:51;7.00;99.90
9837;DHT22;4957;51.412;6.724;2023-12-20T06:04:17;7.00;99.90
9837;DHT22;4957;51.412;6.724;2023-12-20T06:06:43;7.00;99.90
9837;DHT22;4957;51.412;6.724;2023-12-20T06:09:09;7.00;99.90
9837;DHT22;4957;51.412;6.724;2023-12-20T06:11:35;7.10;99.90
9837;DHT22;4957;51.412;6.724;2023-12-20T06:14:00;7.10;99.90
9837;DHT22;4957;51.412;6.724;2023-12-20T06:16:26;7.10;99.90
9837;DHT22;4957;51.412;6.724;2023-12-20T06:18:51;7.10;99.90
9837;DHT22;4957;51.412;6.724;2023-12-20T06:21:17;7.10;99.90
9837;DHT22;4957;51.412;6.724;2023-12-20T06:23:43;7.10;99.90
9837;DHT22;4957;51.412;6.724;2023-12-20T06:26:08;7.10;99.90
9837;DHT22;4957;51.412;6.724;2023-12-20T06:28:34;7.10;99.90
9837;DHT22;4957;51.412;6.724;2023-12-20T06:31:00;7.10;99.90
9837;DHT22;4957;51.412;6.724;2023-12-20T06:33:26;7.10;99.90
9837;DHT22;4957;51.412;6.724;2023-12-20T06:35:52;7.10;99.90
9837;DHT22;4957;51.412;6.724;2023-12-20T06:38:18;7.20;99.90
9837;DHT22;4957;51.412;6.724;2023-12-20T06:40:44;7.20;99.90
9837;DHT22;4957;51.412;6.724;2023-12-20T06:43:12;7.20;99.90
9837;DHT22;4957;51.412;6.724;2023-12-20T06:45:38;7.20;99.90
9837;DHT22;4957;51.412;6.724;2023-12-20T06:48:04;7.20;99.90
9837;DHT22;4957;51.412;6.724;2023-12-20T06:50:30;7.20;99.90
9837;DHT22;4957;51.412;6.724;2023-12-20T06:52:56;7.20;99.90
9837;DHT22;4957;51.412;6.724;2023-12-20T06:55:22;7.20;99.90
9837;DHT22;4957;51.412;6.724;2023-12-20T06:57:47;7.20;99.90
9837;DHT22;4957;51.412;6.724;2023-12-20T07:00:13;7.20;99.90
9837;DHT22;4957;51.412;6.724;2023-12-20T07:02:39;7.20;99.90
9837;DHT22;4957;51.412;6.724;2023-12-20T07:05:05;7.20;99.90
9837;DHT22;4957;51.412;6.724;2023-12-20T07:07:31;7.20;99.90
9837;DHT22;4957;51.412;6.724;2023-12-20T07:09:57;7.20;99.90
9837;DHT22;4957;51.412;6.724;2023-12-20T07:12:23;7.30;99.90
9837;DHT22;4957;51.412;6.724;2023-12-20T07:14:48;7.30;99.90
9837;DHT22;4957;51.412;6.724;2023-12-20T07:17:14;7.20;99.90
9837;DHT22;4957;51.412;6.724;2023-12-20T07:19:41;7.30;99.90
9837;DHT22;4957;51.412;6.724;2023-12-20T07:22:07;7.30;99.90
9837;DHT22;4957;51.412;6.724;2023-12-20T07:24:33;7.30;99.90
9837;DHT22;4957;51.412;6.724;2023-12-20T07:27:01;7.30;99.90
9837;DHT22;4957;51.412;6.724;2023-12-20T07:29:27;7.30;99.90
9837;DHT22;4957;51.412;6.724;2023-12-20T07:31:53;7.30;99.90
9837;DHT22;4957;51.412;6.724;2023-12-20T07:34:23;7.30;99.90
9837;DHT22;4957;51.412;6.724;2023-12-20T07:36:48;7.30;99.90
9837;DHT22;4957;51.412;6.724;2023-12-20T07:39:14;7.30;99.90
9837;DHT22;4957;51.412;6.724;2023-12-20T07:41:40;7.30;99.90
9837;DHT22;4957;51.412;6.724;2023-12-20T07:44:06;7.30;99.90
9837;DHT22;4957;51.412;6.724;2023-12-20T07:46:33;7.40;99.90
9837;DHT22;4957;51.412;6.724;2023-12-20T07:48:58;7.40;99.90
9837;DHT22;4957;51.412;6.724;2023-12-20T07:51:24;7.40;99.90
9837;DHT22;4957;51.412;6.724;2023-12-20T07:53:49;7.40;99.90
9837;DHT22;4957;51.412;6.724;2023-12-20T07:56:16;7.40;99.90
9837;DHT22;4957;51.412;6.724;2023-12-20T07:58:43;7.40;99.90
9837;DHT22;4957;51.412;6.724;2023-12-20T08:01:09;7.40;99.90
9837;DHT22;4957;51.412;6.724;2023-12-20T08:03:35;7.40;99.90
9837;DHT22;4957;51.412;6.724;2023-12-20T08:06:01;7.40;99.90
9837;DHT22;4957;51.412;6.724;2023-12-20T08:08:27;7.50;99.90
9837;DHT22;4957;51.412;6.724;2023-12-20T08:10:53;7.40;99.90
9837;DHT22;4957;51.412;6.724;2023-12-20T08:13:19;7.50;99.90
9837;DHT22;4957;51.412;6.724;2023-12-20T08:15:45;7.50;99.90
9837;DHT22;4957;51.412;6.724;2023-12-20T08:18:10;7.50;99.90
9837;DHT22;4957;51.412;6.724;2023-12-20T08:20:36;7.60;99.90
9837;DHT22;4957;51.412;6.724;2023-12-20T08:23:02;7.60;99.90
9837;DHT22;4957;51.412;6.724;2023-12-20T08:25:28;7.60;99.90
9837;DHT22;4957;51.412;6.724;2023-12-20T08:27:53;7.70;99.90
9837;DHT22;4957;51.412;6.724;2023-12-20T08:30:19;7.70;99.90
9837;DHT22;4957;51.412;6.724;2023-12-20T08:32:48;7.70;99.90
9837;DHT22;4957;51.412;6.724;2023-12-20T08:35:14;7.70;99.90
9837;DHT22;4957;51.412;6.724;2023-12-20T08:37:39;7.70;99.90
9837;DHT22;4957;51.412;6.724;2023-12-20T08:40:05;7.70;99.90
9837;DHT22;4957;51.412;6.724;2023-12-20T08:42:31;7.80;99.90
9837;DHT22;4957;51.412;6.724;2023-12-20T08:44:58;7.70;99.90
9837;DHT22;4957;51.412;6.724;2023-12-20T08:47:26;7.70;99.90
9837;DHT22;4957;51.412;6.724;2023-12-20T08:49:52;7.80;99.90
9837;DHT22;4957;51.412;6.724;2023-12-20T08:52:23;7.80;99.90
9837;DHT22;4957;51.412;6.724;2023-12-20T08:54:50;7.80;99.90
9837;DHT22;4957;51.412;6.724;2023-12-20T08:57:19;7.80;99.90
9837;DHT22;4957;51.412;6.724;2023-12-20T08:59:45;7.90;99.90
9837;DHT22;4957;51.412;6.724;2023-12-20T09:02:10;7.90;99.90
9837;DHT22;4957;51.412;6.724;2023-12-20T09:04:36;7.90;99.90
9837;DHT22;4957;51.412;6.724;2023-12-20T09:07:02;8.00;99.90
9837;DHT22;4957;51.412;6.724;2023-12-20T09:09:27;7.90;99.90
9837;DHT22;4957;51.412;6.724;2023-12-20T09:11:53;7.90;99.90
9837;DHT22;4957;51.412;6.724;2023-12-20T09:14:18;8.00;99.90
9837;DHT22;4957;51.412;6.724;2023-12-20T09:16:44;8.00;99.90
9837;DHT22;4957;51.412;6.724;2023-12-20T09:19:10;8.00;99.90
9837;DHT22;4957;51.412;6.724;2023-12-20T09:21:35;8.10;99.90
9837;DHT22;4957;51.412;6.724;2023-12-20T09:24:01;8.10;99.90
9837;DHT22;4957;51.412;6.724;2023-12-20T09:26:27;8.10;99.90
9837;DHT22;4957;51.412;6.724;2023-12-20T09:28:52;8.10;99.90
9837;DHT22;4957;51.412;6.724;2023-12-20T09:31:18;8.10;99.90
9837;DHT22;4957;51.412;6.724;2023-12-20T09:33:44;8.10;99.90
9837;DHT22;4957;51.412;6.724;2023-12-20T09:36:09;8.10;99.90
9837;DHT22;4957;51.412;6.724;2023-12-20T09:38:35;8.10;99.90
9837;DHT22;4957;51.412;6.724;2023-12-20T09:41:01;8.10;99.90
9837;DHT22;4957;51.412;6.724;2023-12-20T09:43:30;8.20;99.90
9837;DHT22;4957;51.412;6.724;2023-12-20T09:46:00;8.20;99.90
9837;DHT22;4957;51.412;6.724;2023-12-20T09:48:27;8.20;99.90
9837;DHT22;4957;51.412;6.724;2023-12-20T09:50:54;8.20;99.90
9837;DHT22;4957;51.412;6.724;2023-12-20T09:53:21;8.20;99.90
9837;DHT22;4957;51.412;6.724;2023-12-20T09:55:49;8.20;99.90
9837;DHT22;4957;51.412;6.724;2023-12-20T09:58:14;8.20;99.90
9837;DHT22;4957;51.412;6.724;2023-12-20T10:00:40;8.20;99.90
9837;DHT22;4957;51.412;6.724;2023-12-20T10:03:06;8.20;99.90
9837;DHT22;4957;51.412;6.724;2023-12-20T10:05:33;8.30;99.90
9837;DHT22;4957;51.412;6.724;2023-12-20T10:08:00;8.20;99.90
9837;DHT22;4957;51.412;6.724;2023-12-20T10:10:26;8.30;99.90
9837;DHT22;4957;51.412;6.724;2023-12-20T10:13:09;8.30;99.90
9837;DHT22;4957;51.412;6.724;2023-12-20T10:15:36;8.30;99.90
9837;DHT22;4957;51.412;6.724;2023-12-20T10:18:03;8.30;99.90
9837;DHT22;4957;51.412;6.724;2023-12-20T10:20:30;8.30;99.90
9837;DHT22;4957;51.412;6.724;2023-12-20T10:22:57;8.30;99.90
9837;DHT22;4957;51.412;6.724;2023-12-20T10:25:23;8.30;99.90
9837;DHT22;4957;51.412;6.724;2023-12-20T10:27:50;8.40;99.90
9837;DHT22;4957;51.412;6.724;2023-12-20T10:30:16;8.40;99.90
9837;DHT22;4957;51.412;6.724;2023-12-20T10:32:41;8.40;99.90
9837;DHT22;4957;51.412;6.724;2023-12-20T10:35:08;8.40;99.90
9837;DHT22;4957;51.412;6.724;2023-12-20T10:37:37;8.40;99.90
9837;DHT22;4957;51.412;6.724;2023-12-20T10:40:04;8.40;99.90
9837;DHT22;4957;51.412;6.724;2023-12-20T10:42:32;8.50;99.90
9837;DHT22;4957;51.412;6.724;2023-12-20T10:45:00;8.50;99.90
9837;DHT22;4957;51.412;6.724;2023-12-20T10:47:26;8.50;99.90
9837;DHT22;4957;51.412;6.724;2023-12-20T10:49:54;8.50;99.90
9837;DHT22;4957;51.412;6.724;2023-12-20T10:52:23;8.50;99.90
9837;DHT22;4957;51.412;6.724;2023-12-20T10:54:49;8.50;99.90
9837;DHT22;4957;51.412;6.724;2023-12-20T10:57:15;8.60;99.90
9837;DHT22;4957;51.412;6.724;2023-12-20T10:59:45;8.60;99.90
9837;DHT22;4957;51.412;6.724;2023-12-20T11:02:14;8.60;99.90
9837;DHT22;4957;51.412;6.724;2023-12-20T11:04:50;8.60;99.90
9837;DHT22;4957;51.412;6.724;2023-12-20T11:07:34;8.70;99.90
9837;DHT22;4957;51.412;6.724;2023-12-20T11:10:13;8.70;99.90
9837;DHT22;4957;51.412;6.724;2023-12-20T11:12:51;8.70;99.90
9837;DHT22;4957;51.412;6.724;2023-12-20T11:15:19;8.70;99.90
9837;DHT22;4957;51.412;6.724;2023-12-20T11:17:45;8.70;99.90
9837;DHT22;4957;51.412;6.724;2023-12-20T11:20:13;8.70;99.90
9837;DHT22;4957;51.412;6.724;2023-12-20T11:22:40;8.70;99.90
9837;DHT22;4957;51.412;6.724;2023-12-20T11:25:17;8.70;99.90
9837;DHT22;4957;51.412;6.724;2023-12-20T11:27:43;8.80;99.90
9837;DHT22;4957;51.412;6.724;2023-12-20T11:30:09;8.80;99.90
9837;DHT22;4957;51.412;6.724;2023-12-20T11:32:36;8.80;99.90
9837;DHT22;4957;51.412;6.724;2023-12-20T11:37:38;8.90;99.90
9837;DHT22;4957;51.412;6.724;2023-12-20T11:40:08;8.90;99.90
9837;DHT22;4957;51.412;6.724;2023-12-20T11:42:43;8.90;99.90
9837;DHT22;4957;51.412;6.724;2023-12-20T11:45:10;8.90;99.90
9837;DHT22;4957;51.412;6.724;2023-12-20T11:47:37;8.90;99.90
9837;DHT22;4957;51.412;6.724;2023-12-20T11:50:04;9.00;99.90
9837;DHT22;4957;51.412;6.724;2023-12-20T11:52:30;9.00;99.90
9837;DHT22;4957;51.412;6.724;2023-12-20T11:54:57;9.00;99.90
9837;DHT22;4957;51.412;6.724;2023-12-20T11:57:23;9.00;99.90
9837;DHT22;4957;51.412;6.724;2023-12-20T11:59:48;9.00;99.90
9837;DHT22;4957;51.412;6.724;2023-12-20T12:02:23;9.00;99.90
9837;DHT22;4957;51.412;6.724;2023-12-20T12:04:49;9.00;99.90
9837;DHT22;4957;51.412;6.724;2023-12-20T12:07:16;9.10;99.90
9837;DHT22;4957;51.412;6.724;2023-12-20T12:09:43;9.00;99.90
9837;DHT22;4957;51.412;6.724;2023-12-20T12:12:09;9.00;99.90
9837;DHT22;4957;51.412;6.724;2023-12-20T12:14:41;9.10;99.90
9837;DHT22;4957;51.412;6.724;2023-12-20T12:17:14;9.10;99.90
9837;DHT22;4957;51.412;6.724;2023-12-20T12:19:41;9.10;99.90
9837;DHT22;4957;51.412;6.724;2023-12-20T12:22:12;9.10;99.90
9837;DHT22;4957;51.412;6.724;2023-12-20T12:24:46;9.10;99.90
9837;DHT22;4957;51.412;6.724;2023-12-20T12:27:13;9.10;99.90
9837;DHT22;4957;51.412;6.724;2023-12-20T12:29:39;9.10;99.90
9837;DHT22;4957;51.412;6.724;2023-12-20T12:32:09;9.10;99.90
9837;DHT22;4957;51.412;6.724;2023-12-20T12:34:35;9.10;99.90
9837;DHT22;4957;51.412;6.724;2023-12-20T12:37:03;9.10;99.90
9837;DHT22;4957;51.412;6.724;2023-12-20T12:39:29;9.10;99.90
9837;DHT22;4957;51.412;6.724;2023-12-20T12:41:56;9.10;99.90
9837;DHT22;4957;51.412;6.724;2023-12-20T12:44:22;9.20;99.90
9837;DHT22;4957;51.412;6.724;2023-12-20T12:46:51;9.20;99.90
9837;DHT22;4957;51.412;6.724;2023-12-20T12:49:19;9.20;99.90
9837;DHT22;4957;51.412;6.724;2023-12-20T12:51:45;9.20;99.90
9837;DHT22;4957;51.412;6.724;2023-12-20T12:54:11;9.20;99.90
9837;DHT22;4957;51.412;6.724;2023-12-20T12:56:39;9.20;99.90
9837;DHT22;4957;51.412;6.724;2023-12-20T12:59:04;9.20;99.90
9837;DHT22;4957;51.412;6.724;2023-12-20T13:01:31;9.20;99.90
9837;DHT22;4957;51.412;6.724;2023-12-20T13:03:57;9.20;99.90
9837;DHT22;4957;51.412;6.724;2023-12-20T13:06:22;9.20;99.90
9837;DHT22;4957;51.412;6.724;2023-12-20T13:08:48;9.20;99.90
9837;DHT22;4957;51.412;6.724;2023-12-20T13:11:14;9.20;99.90
9837;DHT22;4957;51.412;6.724;2023-12-20T13:13:40;9.20;99.90
9837;DHT22;4957;51.412;6.724;2023-12-20T13:16:06;9.20;99.90
9837;DHT22;4957;51.412;6.724;2023-12-20T13:18:32;9.20;99.90
9837;DHT22;4957;51.412;6.724;2023-12-20T13:20:57;9.20;99.90
9837;DHT22;4957;51.412;6.724;2023-12-20T13:23:23;9.10;99.90
9837;DHT22;4957;51.412;6.724;2023-12-20T13:25:49;9.20;99.90
9837;DHT22;4957;51.412;6.724;2023-12-20T13:28:14;9.10;99.90
9837;DHT22;4957;51.412;6.724;2023-12-20T13:30:40;9.20;99.90
9837;DHT22;4957;51.412;6.724;2023-12-20T13:33:06;9.10;99.90
9837;DHT22;4957;51.412;6.724;2023-12-20T13:35:33;9.10;99.90
9837;DHT22;4957;51.412;6.724;2023-12-20T13:38:00;9.20;99.90
9837;DHT22;4957;51.412;6.724;2023-12-20T13:40:26;9.10;99.90
9837;DHT22;4957;51.412;6.724;2023-12-20T13:42:51;9.10;99.90
9837;DHT22;4957;51.412;6.724;2023-12-20T13:45:17;9.10;99.90
9837;DHT22;4957;51.412;6.724;2023-12-20T13:47:43;9.10;99.90
9837;DHT22;4957;51.412;6.724;2023-12-20T13:50:09;9.10;99.90
9837;DHT22;4957;51.412;6.724;2023-12-20T13:52:35;9.10;99.90
9837;DHT22;4957;51.412;6.724;2023-12-20T13:55:01;9.10;99.90
9837;DHT22;4957;51.412;6.724;2023-12-20T13:57:27;9.10;99.90
9837;DHT22;4957;51.412;6.724;2023-12-20T13:59:55;9.10;99.90
9837;DHT22;4957;51.412;6.724;2023-12-20T14:02:22;9.10;99.90
9837;DHT22;4957;51.412;6.724;2023-12-20T14:04:48;9.20;99.90
9837;DHT22;4957;51.412;6.724;2023-12-20T14:07:13;9.10;99.90
9837;DHT22;4957;51.412;6.724;2023-12-20T14:09:40;9.20;99.90
9837;DHT22;4957;51.412;6.724;2023-12-20T14:12:12;9.10;99.90
9837;DHT22;4957;51.412;6.724;2023-12-20T14:14:38;9.20;99.90
9837;DHT22;4957;51.412;6.724;2023-12-20T14:17:04;9.20;99.90
9837;DHT22;4957;51.412;6.724;2023-12-20T14:19:32;9.10;99.90
9837;DHT22;4957;51.412;6.724;2023-12-20T14:21:57;9.20;99.90
9837;DHT22;4957;51.412;6.724;2023-12-20T14:24:27;9.10;99.90
9837;DHT22;4957;51.412;6.724;2023-12-20T14:26:54;9.20;99.90
9837;DHT22;4957;51.412;6.724;2023-12-20T14:29:20;9.20;99.90
9837;DHT22;4957;51.412;6.724;2023-12-20T14:31:45;9.20;99.90
9837;DHT22;4957;51.412;6.724;2023-12-20T14:34:12;9.20;99.90
9837;DHT22;4957;51.412;6.724;2023-12-20T14:36:38;9.20;99.90
9837;DHT22;4957;51.412;6.724;2023-12-20T14:39:04;9.20;99.90
9837;DHT22;4957;51.412;6.724;2023-12-20T14:41:30;9.10;99.90
9837;DHT22;4957;51.412;6.724;2023-12-20T14:43:56;9.10;99.90
9837;DHT22;4957;51.412;6.724;2023-12-20T14:46:23;9.20;99.90
9837;DHT22;4957;51.412;6.724;2023-12-20T14:48:49;9.20;99.90
9837;DHT22;4957;51.412;6.724;2023-12-20T14:51:15;9.10;99.90
9837;DHT22;4957;51.412;6.724;2023-12-20T14:53:41;9.10;99.90
9837;DHT22;4957;51.412;6.724;2023-12-20T14:56:08;9.10;99.90
9837;DHT22;4957;51.412;6.724;2023-12-20T14:58:33;9.10;99.90
9837;DHT22;4957;51.412;6.724;2023-12-20T15:01:01;9.10;99.90
9837;DHT22;4957;51.412;6.724;2023-12-20T15:03:27;9.10;99.90
9837;DHT22;4957;51.412;6.724;2023-12-20T15:05:54;9.10;99.90
9837;DHT22;4957;51.412;6.724;2023-12-20T15:08:20;9.10;99.90
9837;DHT22;4957;51.412;6.724;2023-12-20T15:10:47;9.10;99.90
9837;DHT22;4957;51.412;6.724;2023-12-20T15:13:12;9.10;99.90
9837;DHT22;4957;51.412;6.724;2023-12-20T15:15:38;9.10;99.90
9837;DHT22;4957;51.412;6.724;2023-12-20T15:18:04;9.10;99.90
9837;DHT22;4957;51.412;6.724;2023-12-20T15:20:30;9.10;99.90
9837;DHT22;4957;51.412;6.724;2023-12-20T15:22:58;9.10;99.90
9837;DHT22;4957;51.412;6.724;2023-12-20T15:25:30;9.10;99.90
9837;DHT22;4957;51.412;6.724;2023-12-20T15:27:56;9.10;99.90
9837;DHT22;4957;51.412;6.724;2023-12-20T15:30:21;9.10;99.90
9837;DHT22;4957;51.412;6.724;2023-12-20T15:32:49;9.10;99.90
9837;DHT22;4957;51.412;6.724;2023-12-20T15:35:15;9.10;99.90
9837;DHT22;4957;51.412;6.724;2023-12-20T15:37:41;9.10;99.90
9837;DHT22;4957;51.412;6.724;2023-12-20T15:40:10;9.10;99.90
9837;DHT22;4957;51.412;6.724;2023-12-20T15:42:37;9.10;99.90
9837;DHT22;4957;51.412;6.724;2023-12-20T15:45:04;9.10;99.90
9837;DHT22;4957;51.412;6.724;2023-12-20T15:47:30;9.10;99.90
9837;DHT22;4957;51.412;6.724;2023-12-20T15:49:56;9.00;99.90
9837;DHT22;4957;51.412;6.724;2023-12-20T15:52:21;9.10;99.90
9837;DHT22;4957;51.412;6.724;2023-12-20T15:54:47;9.00;99.90
9837;DHT22;4957;51.412;6.724;2023-12-20T15:57:13;9.00;99.90
9837;DHT22;4957;51.412;6.724;2023-12-20T15:59:41;9.00;99.90
9837;DHT22;4957;51.412;6.724;2023-12-20T16:02:07;9.00;99.90
9837;DHT22;4957;51.412;6.724;2023-12-20T16:04:33;9.00;99.90
9837;DHT22;4957;51.412;6.724;2023-12-20T16:06:58;9.00;99.90
9837;DHT22;4957;51.412;6.724;2023-12-20T16:09:24;9.10;99.90
9837;DHT22;4957;51.412;6.724;2023-12-20T16:11:50;9.00;99.90
9837;DHT22;4957;51.412;6.724;2023-12-20T16:14:15;9.00;99.90